CheckWX is a tool to help pilots better visualize weather data.  It is not intended as a substitute for an official pre-flight weather briefing.

22:55:45 UTC

SELT TAF
Cotopaxi International Airport
Latacunga, Ecuador
SELT 201630Z 2018/2118 18015KT 9999 BKN030 BKN100 FM210000 18006KT 9999 SCT010 BKN030 FM211400 18014KT 9999 BKN023 SCT100 TX17/2019Z TN09/2111Z

Feb-20@
18:00 UTC

Feb-20 @ 18:00 UTC

Feb-21@
00:00 UTC

Feb-21 @ 00:00 UTC

SELT 201630Z 2018/2118 18015KT 9999 BKN030 BKN100
Wind
  • 180° at 15 KTS
Cloud Levels
  • Broken at 3,000' AGL
  • Broken at 10,000' AGL

Feb-21@
00:00 UTC

Feb-21 @ 00:00 UTC

Feb-21@
14:00 UTC

Feb-21 @ 14:00 UTC

FM210000 18006KT 9999 SCT010 BKN030

From

From Standard forecast or significant change

Wind
  • 180° at 6 KTS
Cloud Levels
  • Scattered at 1,000' AGL
  • Broken at 3,000' AGL

Feb-21@
14:00 UTC

Feb-21 @ 14:00 UTC

Feb-21@
18:00 UTC

Feb-21 @ 18:00 UTC

FM211400 18014KT 9999 BKN023 SCT100 TX17/2019Z TN09/2111Z

From

From Standard forecast or significant change

Wind
  • 180° at 14 KTS
Cloud Levels
  • Broken at 2,300' AGL
  • Scattered at 10,000' AGL